sensor_id;sensor_type;location;lat;lon;timestamp;P1;durP1;ratioP1;P2;durP2;ratioP2
20203;SDS011;10261;49.010;12.034;2022-09-09T00:00:19;4.30;;;1.17;;
20203;SDS011;10261;49.010;12.034;2022-09-09T00:01:25;2.45;;;1.48;;
20203;SDS011;10261;49.010;12.034;2022-09-09T00:02:35;3.25;;;1.20;;
20203;SDS011;10261;49.010;12.034;2022-09-09T00:03:40;3.80;;;1.45;;
20203;SDS011;10261;49.010;12.034;2022-09-09T00:04:53;8.63;;;1.42;;
20203;SDS011;10261;49.010;12.034;2022-09-09T00:06:03;4.00;;;1.48;;
20203;SDS011;10261;49.010;12.034;2022-09-09T00:07:13;4.78;;;2.03;;
20203;SDS011;10261;49.010;12.034;2022-09-09T00:08:24;1.70;;;1.15;;
20203;SDS011;10261;49.010;12.034;2022-09-09T00:09:36;8.55;;;1.83;;
20203;SDS011;10261;49.010;12.034;2022-09-09T00:10:42;1.30;;;1.10;;
20203;SDS011;10261;49.010;12.034;2022-09-09T00:11:47;2.67;;;1.63;;
20203;SDS011;10261;49.010;12.034;2022-09-09T00:12:54;1.75;;;1.50;;
20203;SDS011;10261;49.010;12.034;2022-09-09T00:14:06;2.72;;;1.13;;
20203;SDS011;10261;49.010;12.034;2022-09-09T00:15:16;1.55;;;1.42;;
20203;SDS011;10261;49.010;12.034;2022-09-09T00:16:22;2.05;;;1.67;;
20203;SDS011;10261;49.010;12.034;2022-09-09T00:17:31;3.65;;;1.40;;
20203;SDS011;10261;49.010;12.034;2022-09-09T00:18:44;10.90;;;1.40;;
20203;SDS011;10261;49.010;12.034;2022-09-09T00:19:54;2.38;;;1.70;;
20203;SDS011;10261;49.010;12.034;2022-09-09T00:21:05;9.52;;;1.80;;
20203;SDS011;10261;49.010;12.034;2022-09-09T00:22:13;3.58;;;1.13;;
20203;SDS011;10261;49.010;12.034;2022-09-09T00:23:20;3.47;;;1.48;;
20203;SDS011;10261;49.010;12.034;2022-09-09T00:24:26;2.20;;;1.70;;
20203;SDS011;10261;49.010;12.034;2022-09-09T00:25:37;1.50;;;1.40;;
20203;SDS011;10261;49.010;12.034;2022-09-09T00:26:44;5.53;;;1.60;;
20203;SDS011;10261;49.010;12.034;2022-09-09T00:27:50;8.77;;;1.63;;
20203;SDS011;10261;49.010;12.034;2022-09-09T00:28:55;10.90;;;1.67;;
20203;SDS011;10261;49.010;12.034;2022-09-09T00:30:14;1.50;;;1.40;;
20203;SDS011;10261;49.010;12.034;2022-09-09T00:31:22;2.00;;;1.60;;
20203;SDS011;10261;49.010;12.034;2022-09-09T00:32:29;1.85;;;1.65;;
20203;SDS011;10261;49.010;12.034;2022-09-09T00:33:31;7.18;;;1.67;;
20203;SDS011;10261;49.010;12.034;2022-09-09T00:34:35;2.65;;;1.20;;
20203;SDS011;10261;49.010;12.034;2022-09-09T00:35:41;5.07;;;1.70;;
20203;SDS011;10261;49.010;12.034;2022-09-09T00:36:53;2.10;;;1.90;;
20203;SDS011;10261;49.010;12.034;2022-09-09T00:38:00;1.80;;;1.52;;
20203;SDS011;10261;49.010;12.034;2022-09-09T00:39:08;2.83;;;1.65;;
20203;SDS011;10261;49.010;12.034;2022-09-09T00:40:27;3.20;;;1.80;;
20203;SDS011;10261;49.010;12.034;2022-09-09T00:41:37;1.33;;;1.00;;
20203;SDS011;10261;49.010;12.034;2022-09-09T00:42:54;3.30;;;1.65;;
20203;SDS011;10261;49.010;12.034;2022-09-09T00:44:22;2.35;;;1.67;;
20203;SDS011;10261;49.010;12.034;2022-09-09T00:45:43;1.88;;;1.40;;
20203;SDS011;10261;49.010;12.034;2022-09-09T00:47:04;1.65;;;1.30;;
20203;SDS011;10261;49.010;12.034;2022-09-09T00:48:18;1.60;;;1.40;;
20203;SDS011;10261;49.010;12.034;2022-09-09T00:49:26;1.60;;;1.20;;
20203;SDS011;10261;49.010;12.034;2022-09-09T00:50:43;2.15;;;1.33;;
20203;SDS011;10261;49.010;12.034;2022-09-09T00:51:57;1.67;;;1.45;;
20203;SDS011;10261;49.010;12.034;2022-09-09T00:53:08;3.80;;;1.75;;
20203;SDS011;10261;49.010;12.034;2022-09-09T00:54:33;1.73;;;1.45;;
20203;SDS011;10261;49.010;12.034;2022-09-09T00:55:47;1.80;;;1.70;;
20203;SDS011;10261;49.010;12.034;2022-09-09T00:56:55;2.85;;;1.52;;
20203;SDS011;10261;49.010;12.034;2022-09-09T00:58:10;2.67;;;1.80;;
20203;SDS011;10261;49.010;12.034;2022-09-09T00:59:14;2.85;;;2.05;;
20203;SDS011;10261;49.010;12.034;2022-09-09T01:00:30;2.88;;;2.10;;
20203;SDS011;10261;49.010;12.034;2022-09-09T01:01:37;3.65;;;2.28;;
20203;SDS011;10261;49.010;12.034;2022-09-09T01:02:47;2.35;;;2.00;;
20203;SDS011;10261;49.010;12.034;2022-09-09T01:04:00;2.40;;;2.15;;
20203;SDS011;10261;49.010;12.034;2022-09-09T01:05:15;5.35;;;2.30;;
20203;SDS011;10261;49.010;12.034;2022-09-09T01:06:22;4.22;;;2.88;;
20203;SDS011;10261;49.010;12.034;2022-09-09T01:07:32;5.90;;;2.80;;
20203;SDS011;10261;49.010;12.034;2022-09-09T01:10:03;4.30;;;2.58;;
20203;SDS011;10261;49.010;12.034;2022-09-09T01:11:16;7.88;;;3.33;;
20203;SDS011;10261;49.010;12.034;2022-09-09T01:12:25;4.45;;;3.20;;
20203;SDS011;10261;49.010;12.034;2022-09-09T01:13:36;5.57;;;3.40;;
20203;SDS011;10261;49.010;12.034;2022-09-09T01:14:40;3.67;;;3.10;;
20203;SDS011;10261;49.010;12.034;2022-09-09T01:15:47;6.43;;;4.05;;
20203;SDS011;10261;49.010;12.034;2022-09-09T01:16:52;8.55;;;4.10;;
20203;SDS011;10261;49.010;12.034;2022-09-09T01:17:59;8.55;;;4.25;;
20203;SDS011;10261;49.010;12.034;2022-09-09T01:19:05;9.63;;;5.28;;
20203;SDS011;10261;49.010;12.034;2022-09-09T01:20:17;6.28;;;4.60;;
20203;SDS011;10261;49.010;12.034;2022-09-09T01:21:26;5.25;;;4.47;;
20203;SDS011;10261;49.010;12.034;2022-09-09T01:22:40;8.05;;;4.45;;
20203;SDS011;10261;49.010;12.034;2022-09-09T01:23:57;5.75;;;4.90;;
20203;SDS011;10261;49.010;12.034;2022-09-09T01:25:22;6.03;;;4.60;;
20203;SDS011;10261;49.010;12.034;2022-09-09T01:26:31;7.22;;;5.53;;
20203;SDS011;10261;49.010;12.034;2022-09-09T01:27:37;6.95;;;5.57;;
20203;SDS011;10261;49.010;12.034;2022-09-09T01:28:41;10.80;;;5.95;;
20203;SDS011;10261;49.010;12.034;2022-09-09T01:29:46;7.25;;;5.45;;
20203;SDS011;10261;49.010;12.034;2022-09-09T01:30:49;8.38;;;5.63;;
20203;SDS011;10261;49.010;12.034;2022-09-09T01:31:53;6.22;;;5.55;;
20203;SDS011;10261;49.010;12.034;2022-09-09T01:32:56;6.18;;;4.65;;
20203;SDS011;10261;49.010;12.034;2022-09-09T01:34:01;9.32;;;5.47;;
20203;SDS011;10261;49.010;12.034;2022-09-09T01:35:04;7.93;;;5.40;;
20203;SDS011;10261;49.010;12.034;2022-09-09T01:36:10;6.30;;;5.70;;
20203;SDS011;10261;49.010;12.034;2022-09-09T01:37:15;6.30;;;5.70;;
20203;SDS011;10261;49.010;12.034;2022-09-09T01:38:18;12.20;;;5.78;;
20203;SDS011;10261;49.010;12.034;2022-09-09T01:39:20;6.45;;;5.13;;
20203;SDS011;10261;49.010;12.034;2022-09-09T01:40:24;7.65;;;6.22;;
20203;SDS011;10261;49.010;12.034;2022-09-09T01:41:26;6.50;;;5.65;;
20203;SDS011;10261;49.010;12.034;2022-09-09T01:42:31;7.55;;;4.78;;
20203;SDS011;10261;49.010;12.034;2022-09-09T01:43:33;7.00;;;5.68;;
20203;SDS011;10261;49.010;12.034;2022-09-09T01:44:36;10.32;;;6.70;;
20203;SDS011;10261;49.010;12.034;2022-09-09T01:45:39;7.15;;;5.70;;
20203;SDS011;10261;49.010;12.034;2022-09-09T01:46:44;7.22;;;5.35;;
20203;SDS011;10261;49.010;12.034;2022-09-09T01:47:46;9.63;;;6.90;;
20203;SDS011;10261;49.010;12.034;2022-09-09T01:48:50;6.57;;;5.55;;
20203;SDS011;10261;49.010;12.034;2022-09-09T01:49:54;9.35;;;5.75;;
20203;SDS011;10261;49.010;12.034;2022-09-09T01:50:57;11.25;;;6.30;;
20203;SDS011;10261;49.010;12.034;2022-09-09T01:51:58;10.70;;;5.68;;
20203;SDS011;10261;49.010;12.034;2022-09-09T01:53:02;10.95;;;6.20;;
20203;SDS011;10261;49.010;12.034;2022-09-09T01:54:05;9.52;;;5.80;;
20203;SDS011;10261;49.010;12.034;2022-09-09T01:55:09;7.95;;;6.07;;
20203;SDS011;10261;49.010;12.034;2022-09-09T01:56:15;5.93;;;5.00;;
20203;SDS011;10261;49.010;12.034;2022-09-09T01:57:27;8.38;;;5.97;;
20203;SDS011;10261;49.010;12.034;2022-09-09T01:58:39;6.70;;;5.88;;
20203;SDS011;10261;49.010;12.034;2022-09-09T02:00:01;7.35;;;6.15;;
20203;SDS011;10261;49.010;12.034;2022-09-09T02:01:10;7.40;;;5.28;;
20203;SDS011;10261;49.010;12.034;2022-09-09T02:02:19;10.65;;;5.80;;
20203;SDS011;10261;49.010;12.034;2022-09-09T02:03:29;9.68;;;6.20;;
20203;SDS011;10261;49.010;12.034;2022-09-09T02:04:36;8.95;;;6.25;;
20203;SDS011;10261;49.010;12.034;2022-09-09T02:05:41;6.95;;;5.80;;
20203;SDS011;10261;49.010;12.034;2022-09-09T02:06:50;7.22;;;5.90;;
20203;SDS011;10261;49.010;12.034;2022-09-09T02:07:59;6.70;;;6.00;;
20203;SDS011;10261;49.010;12.034;2022-09-09T02:09:06;7.13;;;6.40;;
20203;SDS011;10261;49.010;12.034;2022-09-09T02:10:15;6.40;;;5.68;;
20203;SDS011;10261;49.010;12.034;2022-09-09T02:11:21;8.43;;;6.43;;
20203;SDS011;10261;49.010;12.034;2022-09-09T02:12:25;7.63;;;6.25;;
20203;SDS011;10261;49.010;12.034;2022-09-09T02:13:31;10.07;;;6.25;;
20203;SDS011;10261;49.010;12.034;2022-09-09T02:14:36;6.22;;;5.63;;
20203;SDS011;10261;49.010;12.034;2022-09-09T02:15:52;7.40;;;6.38;;
20203;SDS011;10261;49.010;12.034;2022-09-09T02:16:59;8.77;;;6.18;;
20203;SDS011;10261;49.010;12.034;2022-09-09T02:18:07;9.95;;;6.63;;
20203;SDS011;10261;49.010;12.034;2022-09-09T02:19:13;8.57;;;6.75;;
20203;SDS011;10261;49.010;12.034;2022-09-09T02:20:18;7.05;;;6.20;;
20203;SDS011;10261;49.010;12.034;2022-09-09T02:21:23;9.40;;;7.10;;
20203;SDS011;10261;49.010;12.034;2022-09-09T02:22:26;7.35;;;6.60;;
20203;SDS011;10261;49.010;12.034;2022-09-09T02:23:35;8.82;;;6.57;;
20203;SDS011;10261;49.010;12.034;2022-09-09T02:24:40;8.48;;;6.75;;
20203;SDS011;10261;49.010;12.034;2022-09-09T02:25:43;7.30;;;6.55;;
20203;SDS011;10261;49.010;12.034;2022-09-09T02:26:48;6.03;;;5.43;;
20203;SDS011;10261;49.010;12.034;2022-09-09T02:27:54;6.32;;;5.72;;
20203;SDS011;10261;49.010;12.034;2022-09-09T02:29:01;7.30;;;6.60;;
20203;SDS011;10261;49.010;12.034;2022-09-09T02:30:07;12.63;;;6.93;;
20203;SDS011;10261;49.010;12.034;2022-09-09T02:31:10;7.72;;;6.57;;
20203;SDS011;10261;49.010;12.034;2022-09-09T02:32:16;7.45;;;6.20;;
20203;SDS011;10261;49.010;12.034;2022-09-09T02:33:21;6.63;;;5.95;;
20203;SDS011;10261;49.010;12.034;2022-09-09T02:34:27;6.53;;;5.93;;
20203;SDS011;10261;49.010;12.034;2022-09-09T02:35:31;6.38;;;5.82;;
20203;SDS011;10261;49.010;12.034;2022-09-09T02:36:38;7.88;;;6.63;;
20203;SDS011;10261;49.010;12.034;2022-09-09T02:37:44;6.88;;;6.18;;
20203;SDS011;10261;49.010;12.034;2022-09-09T02:38:48;7.40;;;6.65;;
20203;SDS011;10261;49.010;12.034;2022-09-09T02:39:51;6.97;;;6.38;;
20203;SDS011;10261;49.010;12.034;2022-09-09T02:40:55;8.57;;;7.25;;
20203;SDS011;10261;49.010;12.034;2022-09-09T02:41:57;6.43;;;5.82;;
20203;SDS011;10261;49.010;12.034;2022-09-09T02:43:00;7.90;;;6.13;;
20203;SDS011;10261;49.010;12.034;2022-09-09T02:44:08;6.72;;;6.03;;
20203;SDS011;10261;49.010;12.034;2022-09-09T02:45:14;13.30;;;7.13;;
20203;SDS011;10261;49.010;12.034;2022-09-09T02:46:27;8.40;;;6.60;;
20203;SDS011;10261;49.010;12.034;2022-09-09T02:47:41;9.32;;;6.30;;
20203;SDS011;10261;49.010;12.034;2022-09-09T02:48:51;8.02;;;6.75;;
20203;SDS011;10261;49.010;12.034;2022-09-09T02:50:03;6.82;;;6.13;;
20203;SDS011;10261;49.010;12.034;2022-09-09T02:51:15;7.35;;;6.55;;
20203;SDS011;10261;49.010;12.034;2022-09-09T02:52:26;7.32;;;6.35;;
20203;SDS011;10261;49.010;12.034;2022-09-09T02:53:37;10.25;;;7.38;;
20203;SDS011;10261;49.010;12.034;2022-09-09T02:54:44;7.68;;;6.88;;
20203;SDS011;10261;49.010;12.034;2022-09-09T02:55:49;7.88;;;6.47;;
20203;SDS011;10261;49.010;12.034;2022-09-09T02:56:56;8.05;;;6.35;;
20203;SDS011;10261;49.010;12.034;2022-09-09T02:58:04;7.90;;;7.03;;
20203;SDS011;10261;49.010;12.034;2022-09-09T02:59:09;9.65;;;7.10;;
20203;SDS011;10261;49.010;12.034;2022-09-09T03:00:12;7.93;;;7.13;;
20203;SDS011;10261;49.010;12.034;2022-09-09T03:01:15;7.15;;;6.45;;
20203;SDS011;10261;49.010;12.034;2022-09-09T03:02:18;7.32;;;6.63;;
20203;SDS011;10261;49.010;12.034;2022-09-09T03:03:20;8.05;;;6.80;;
20203;SDS011;10261;49.010;12.034;2022-09-09T03:04:23;7.78;;;7.00;;
20203;SDS011;10261;49.010;12.034;2022-09-09T03:05:26;9.18;;;7.70;;
20203;SDS011;10261;49.010;12.034;2022-09-09T03:06:29;7.47;;;6.78;;
20203;SDS011;10261;49.010;12.034;2022-09-09T03:07:31;6.40;;;5.65;;
20203;SDS011;10261;49.010;12.034;2022-09-09T03:08:34;15.30;;;8.75;;
20203;SDS011;10261;49.010;12.034;2022-09-09T03:09:37;7.18;;;6.47;;
20203;SDS011;10261;49.010;12.034;2022-09-09T03:10:39;8.05;;;7.20;;
20203;SDS011;10261;49.010;12.034;2022-09-09T03:11:42;6.57;;;5.97;;
20203;SDS011;10261;49.010;12.034;2022-09-09T03:12:44;8.45;;;7.25;;
20203;SDS011;10261;49.010;12.034;2022-09-09T03:13:47;7.78;;;7.07;;
20203;SDS011;10261;49.010;12.034;2022-09-09T03:14:51;11.50;;;6.97;;
20203;SDS011;10261;49.010;12.034;2022-09-09T03:15:54;8.40;;;7.25;;
20203;SDS011;10261;49.010;12.034;2022-09-09T03:16:56;8.15;;;7.35;;
20203;SDS011;10261;49.010;12.034;2022-09-09T03:18:02;8.05;;;7.13;;
20203;SDS011;10261;49.010;12.034;2022-09-09T03:19:04;8.20;;;7.40;;
20203;SDS011;10261;49.010;12.034;2022-09-09T03:20:07;6.70;;;6.05;;
20203;SDS011;10261;49.010;12.034;2022-09-09T03:21:10;9.48;;;6.80;;
20203;SDS011;10261;49.010;12.034;2022-09-09T03:22:13;7.97;;;7.15;;
20203;SDS011;10261;49.010;12.034;2022-09-09T03:23:14;8.10;;;7.35;;
20203;SDS011;10261;49.010;12.034;2022-09-09T03:24:17;8.60;;;6.68;;
20203;SDS011;10261;49.010;12.034;2022-09-09T03:25:19;10.77;;;8.45;;
20203;SDS011;10261;49.010;12.034;2022-09-09T03:26:24;9.15;;;8.25;;
20203;SDS011;10261;49.010;12.034;2022-09-09T03:27:26;8.20;;;7.40;;
20203;SDS011;10261;49.010;12.034;2022-09-09T03:28:29;8.30;;;7.35;;
20203;SDS011;10261;49.010;12.034;2022-09-09T03:29:32;7.47;;;6.53;;
20203;SDS011;10261;49.010;12.034;2022-09-09T03:30:36;9.60;;;6.47;;
20203;SDS011;10261;49.010;12.034;2022-09-09T03:31:39;8.25;;;7.45;;
20203;SDS011;10261;49.010;12.034;2022-09-09T03:32:42;6.45;;;5.85;;
20203;SDS011;10261;49.010;12.034;2022-09-09T03:33:49;7.63;;;6.70;;
20203;SDS011;10261;49.010;12.034;2022-09-09T03:34:52;7.57;;;6.88;;
20203;SDS011;10261;49.010;12.034;2022-09-09T03:35:54;9.25;;;7.05;;
20203;SDS011;10261;49.010;12.034;2022-09-09T03:36:57;11.52;;;6.95;;
20203;SDS011;10261;49.010;12.034;2022-09-09T03:38:00;8.30;;;6.72;;
20203;SDS011;10261;49.010;12.034;2022-09-09T03:39:03;7.85;;;6.95;;
20203;SDS011;10261;49.010;12.034;2022-09-09T03:40:06;8.60;;;6.80;;
20203;SDS011;10261;49.010;12.034;2022-09-09T03:41:11;7.63;;;6.88;;
20203;SDS011;10261;49.010;12.034;2022-09-09T03:42:14;7.80;;;7.10;;
20203;SDS011;10261;49.010;12.034;2022-09-09T03:43:19;9.05;;;7.72;;
20203;SDS011;10261;49.010;12.034;2022-09-09T03:44:23;7.85;;;7.00;;
20203;SDS011;10261;49.010;12.034;2022-09-09T03:45:25;9.50;;;7.63;;
20203;SDS011;10261;49.010;12.034;2022-09-09T03:46:29;7.05;;;6.00;;
20203;SDS011;10261;49.010;12.034;2022-09-09T03:47:32;6.43;;;5.82;;
20203;SDS011;10261;49.010;12.034;2022-09-09T03:48:35;7.15;;;6.45;;
20203;SDS011;10261;49.010;12.034;2022-09-09T03:49:37;7.20;;;6.50;;
20203;SDS011;10261;49.010;12.034;2022-09-09T03:50:43;7.40;;;6.70;;
20203;SDS011;10261;49.010;12.034;2022-09-09T03:51:46;7.35;;;6.55;;
20203;SDS011;10261;49.010;12.034;2022-09-09T03:52:49;7.68;;;6.95;;
20203;SDS011;10261;49.010;12.034;2022-09-09T03:53:51;7.28;;;6.50;;
20203;SDS011;10261;49.010;12.034;2022-09-09T03:54:59;6.78;;;6.18;;
20203;SDS011;10261;49.010;12.034;2022-09-09T03:56:01;7.47;;;6.78;;
20203;SDS011;10261;49.010;12.034;2022-09-09T03:57:04;7.60;;;6.90;;
20203;SDS011;10261;49.010;12.034;2022-09-09T03:58:07;7.47;;;6.78;;
20203;SDS011;10261;49.010;12.034;2022-09-09T03:59:10;6.50;;;5.90;;
20203;SDS011;10261;49.010;12.034;2022-09-09T04:00:12;9.27;;;6.90;;
20203;SDS011;10261;49.010;12.034;2022-09-09T04:01:15;7.72;;;6.70;;
20203;SDS011;10261;49.010;12.034;2022-09-09T04:02:20;6.75;;;6.07;;
20203;SDS011;10261;49.010;12.034;2022-09-09T04:03:23;7.72;;;6.45;;
20203;SDS011;10261;49.010;12.034;2022-09-09T04:04:28;6.78;;;6.00;;
20203;SDS011;10261;49.010;12.034;2022-09-09T04:05:31;8.43;;;7.32;;
20203;SDS011;10261;49.010;12.034;2022-09-09T04:06:35;10.13;;;6.43;;
20203;SDS011;10261;49.010;12.034;2022-09-09T04:07:38;7.30;;;6.55;;
20203;SDS011;10261;49.010;12.034;2022-09-09T04:08:40;8.93;;;6.90;;
20203;SDS011;10261;49.010;12.034;2022-09-09T04:09:43;6.70;;;6.00;;
20203;SDS011;10261;49.010;12.034;2022-09-09T04:10:45;7.22;;;6.45;;
20203;SDS011;10261;49.010;12.034;2022-09-09T04:11:48;7.15;;;6.45;;
20203;SDS011;10261;49.010;12.034;2022-09-09T04:12:50;8.98;;;7.28;;
20203;SDS011;10261;49.010;12.034;2022-09-09T04:13:53;7.80;;;6.68;;
20203;SDS011;10261;49.010;12.034;2022-09-09T04:14:55;11.88;;;7.20;;
20203;SDS011;10261;49.010;12.034;2022-09-09T04:15:58;7.05;;;6.35;;
20203;SDS011;10261;49.010;12.034;2022-09-09T04:17:01;6.88;;;5.90;;
20203;SDS011;10261;49.010;12.034;2022-09-09T04:18:08;7.72;;;6.93;;
20203;SDS011;10261;49.010;12.034;2022-09-09T04:19:10;7.72;;;6.28;;
20203;SDS011;10261;49.010;12.034;2022-09-09T04:20:14;7.80;;;7.00;;
20203;SDS011;10261;49.010;12.034;2022-09-09T04:21:16;7.38;;;6.57;;
20203;SDS011;10261;49.010;12.034;2022-09-09T04:22:19;7.07;;;6.38;;
20203;SDS011;10261;49.010;12.034;2022-09-09T04:23:24;6.93;;;6.22;;
20203;SDS011;10261;49.010;12.034;2022-09-09T04:24:30;7.13;;;6.43;;
20203;SDS011;10261;49.010;12.034;2022-09-09T04:25:31;6.93;;;6.32;;
20203;SDS011;10261;49.010;12.034;2022-09-09T04:26:35;9.65;;;6.45;;
20203;SDS011;10261;49.010;12.034;2022-09-09T04:27:37;7.65;;;6.90;;
20203;SDS011;10261;49.010;12.034;2022-09-09T04:28:41;6.85;;;6.13;;
20203;SDS011;10261;49.010;12.034;2022-09-09T04:29:43;7.60;;;6.47;;
20203;SDS011;10261;49.010;12.034;2022-09-09T04:30:46;8.32;;;6.75;;
20203;SDS011;10261;49.010;12.034;2022-09-09T04:31:48;7.90;;;7.10;;
20203;SDS011;10261;49.010;12.034;2022-09-09T04:32:51;9.20;;;7.28;;
20203;SDS011;10261;49.010;12.034;2022-09-09T04:33:54;8.75;;;6.65;;
20203;SDS011;10261;49.010;12.034;2022-09-09T04:34:57;8.63;;;7.65;;
20203;SDS011;10261;49.010;12.034;2022-09-09T04:35:59;8.60;;;6.45;;
20203;SDS011;10261;49.010;12.034;2022-09-09T04:37:03;7.78;;;6.97;;
20203;SDS011;10261;49.010;12.034;2022-09-09T04:38:05;7.70;;;6.75;;
20203;SDS011;10261;49.010;12.034;2022-09-09T04:39:10;7.80;;;7.00;;
20203;SDS011;10261;49.010;12.034;2022-09-09T04:40:12;7.32;;;6.60;;
20203;SDS011;10261;49.010;12.034;2022-09-09T04:41:16;8.13;;;7.15;;
20203;SDS011;10261;49.010;12.034;2022-09-09T04:42:18;6.68;;;5.60;;
20203;SDS011;10261;49.010;12.034;2022-09-09T04:43:21;7.70;;;6.70;;
20203;SDS011;10261;49.010;12.034;2022-09-09T04:44:24;7.05;;;6.10;;
20203;SDS011;10261;49.010;12.034;2022-09-09T04:45:26;6.65;;;5.50;;
20203;SDS011;10261;49.010;12.034;2022-09-09T04:46:28;7.45;;;5.88;;
20203;SDS011;10261;49.010;12.034;2022-09-09T04:47:31;7.75;;;5.90;;
20203;SDS011;10261;49.010;12.034;2022-09-09T04:48:34;5.75;;;5.25;;
20203;SDS011;10261;49.010;12.034;2022-09-09T04:49:38;7.40;;;5.88;;
20203;SDS011;10261;49.010;12.034;2022-09-09T04:50:40;7.47;;;6.65;;
20203;SDS011;10261;49.010;12.034;2022-09-09T04:51:43;7.80;;;6.00;;
20203;SDS011;10261;49.010;12.034;2022-09-09T04:52:45;8.00;;;6.25;;
20203;SDS011;10261;49.010;12.034;2022-09-09T04:53:48;6.40;;;5.75;;
20203;SDS011;10261;49.010;12.034;2022-09-09T04:54:51;8.20;;;6.63;;
20203;SDS011;10261;49.010;12.034;2022-09-09T04:56:01;7.80;;;6.18;;
20203;SDS011;10261;49.010;12.034;2022-09-09T04:57:04;16.67;;;7.57;;
20203;SDS011;10261;49.010;12.034;2022-09-09T04:58:08;8.80;;;6.72;;
20203;SDS011;10261;49.010;12.034;2022-09-09T04:59:10;9.70;;;6.55;;
20203;SDS011;10261;49.010;12.034;2022-09-09T05:00:13;9.43;;;6.40;;
20203;SDS011;10261;49.010;12.034;2022-09-09T05:01:17;12.32;;;7.40;;
20203;SDS011;10261;49.010;12.034;2022-09-09T05:02:21;6.70;;;6.00;;
20203;SDS011;10261;49.010;12.034;2022-09-09T05:03:23;10.15;;;7.70;;
20203;SDS011;10261;49.010;12.034;2022-09-09T05:04:26;7.38;;;6.40;;
20203;SDS011;10261;49.010;12.034;2022-09-09T05:05:29;7.13;;;6.43;;
20203;SDS011;10261;49.010;12.034;2022-09-09T05:06:32;10.43;;;6.57;;
20203;SDS011;10261;49.010;12.034;2022-09-09T05:07:34;8.10;;;6.85;;
20203;SDS011;10261;49.010;12.034;2022-09-09T05:08:38;8.65;;;7.45;;
20203;SDS011;10261;49.010;12.034;2022-09-09T05:09:41;11.32;;;7.57;;
20203;SDS011;10261;49.010;12.034;2022-09-09T05:10:44;8.60;;;6.93;;
20203;SDS011;10261;49.010;12.034;2022-09-09T05:11:46;6.55;;;5.90;;
20203;SDS011;10261;49.010;12.034;2022-09-09T05:12:52;6.93;;;6.30;;
20203;SDS011;10261;49.010;12.034;2022-09-09T05:13:55;10.95;;;7.90;;
20203;SDS011;10261;49.010;12.034;2022-09-09T05:14:58;9.43;;;7.20;;
20203;SDS011;10261;49.010;12.034;2022-09-09T05:16:00;8.40;;;6.90;;
20203;SDS011;10261;49.010;12.034;2022-09-09T05:17:03;9.48;;;6.85;;
20203;SDS011;10261;49.010;12.034;2022-09-09T05:18:05;7.82;;;6.60;;
20203;SDS011;10261;49.010;12.034;2022-09-09T05:19:09;7.65;;;6.72;;
20203;SDS011;10261;49.010;12.034;2022-09-09T05:20:11;8.13;;;6.75;;
20203;SDS011;10261;49.010;12.034;2022-09-09T05:21:20;9.02;;;7.25;;
20203;SDS011;10261;49.010;12.034;2022-09-09T05:22:24;7.80;;;7.03;;
20203;SDS011;10261;49.010;12.034;2022-09-09T05:23:26;11.15;;;7.60;;
20203;SDS011;10261;49.010;12.034;2022-09-09T05:24:29;7.50;;;6.75;;
20203;SDS011;10261;49.010;12.034;2022-09-09T05:25:34;7.95;;;7.13;;
20203;SDS011;10261;49.010;12.034;2022-09-09T05:26:37;11.07;;;8.35;;
20203;SDS011;10261;49.010;12.034;2022-09-09T05:27:39;9.25;;;6.93;;
20203;SDS011;10261;49.010;12.034;2022-09-09T05:28:42;8.15;;;7.35;;
20203;SDS011;10261;49.010;12.034;2022-09-09T05:29:44;9.20;;;8.05;;
20203;SDS011;10261;49.010;12.034;2022-09-09T05:30:54;9.88;;;7.43;;
20203;SDS011;10261;49.010;12.034;2022-09-09T05:31:57;8.85;;;7.95;;
20203;SDS011;10261;49.010;12.034;2022-09-09T05:33:00;9.63;;;7.25;;
20203;SDS011;10261;49.010;12.034;2022-09-09T05:34:02;8.63;;;7.82;;
20203;SDS011;10261;49.010;12.034;2022-09-09T05:35:05;8.05;;;7.25;;
20203;SDS011;10261;49.010;12.034;2022-09-09T05:36:08;12.00;;;7.45;;
20203;SDS011;10261;49.010;12.034;2022-09-09T05:37:13;7.45;;;6.70;;
20203;SDS011;10261;49.010;12.034;2022-09-09T05:38:17;9.38;;;7.88;;
20203;SDS011;10261;49.010;12.034;2022-09-09T05:39:19;9.77;;;7.68;;
20203;SDS011;10261;49.010;12.034;2022-09-09T05:40:22;7.43;;;6.70;;
20203;SDS011;10261;49.010;12.034;2022-09-09T05:41:24;10.10;;;7.88;;
20203;SDS011;10261;49.010;12.034;2022-09-09T05:42:29;9.00;;;6.70;;
20203;SDS011;10261;49.010;12.034;2022-09-09T05:43:32;10.52;;;6.80;;
20203;SDS011;10261;49.010;12.034;2022-09-09T05:44:36;9.90;;;8.15;;
20203;SDS011;10261;49.010;12.034;2022-09-09T05:45:39;7.68;;;6.75;;
20203;SDS011;10261;49.010;12.034;2022-09-09T05:46:42;9.30;;;8.32;;
20203;SDS011;10261;49.010;12.034;2022-09-09T05:47:50;8.55;;;7.70;;
20203;SDS011;10261;49.010;12.034;2022-09-09T05:48:54;10.85;;;7.38;;
20203;SDS011;10261;49.010;12.034;2022-09-09T05:49:57;8.60;;;7.80;;
20203;SDS011;10261;49.010;12.034;2022-09-09T05:50:59;8.07;;;7.28;;
20203;SDS011;10261;49.010;12.034;2022-09-09T05:52:02;8.73;;;7.40;;
20203;SDS011;10261;49.010;12.034;2022-09-09T05:53:06;8.68;;;7.18;;
20203;SDS011;10261;49.010;12.034;2022-09-09T05:54:09;8.18;;;7.22;;
20203;SDS011;10261;49.010;12.034;2022-09-09T05:55:11;8.18;;;7.30;;
20203;SDS011;10261;49.010;12.034;2022-09-09T05:56:15;9.23;;;7.95;;
20203;SDS011;10261;49.010;12.034;2022-09-09T05:57:18;7.22;;;6.53;;
20203;SDS011;10261;49.010;12.034;2022-09-09T05:58:21;7.80;;;6.90;;
20203;SDS011;10261;49.010;12.034;2022-09-09T05:59:23;9.45;;;7.55;;
20203;SDS011;10261;49.010;12.034;2022-09-09T06:00:26;9.25;;;6.75;;
20203;SDS011;10261;49.010;12.034;2022-09-09T06:01:29;9.35;;;8.20;;
20203;SDS011;10261;49.010;12.034;2022-09-09T06:02:34;8.23;;;7.40;;
20203;SDS011;10261;49.010;12.034;2022-09-09T06:03:38;7.20;;;6.40;;
20203;SDS011;10261;49.010;12.034;2022-09-09T06:04:43;8.88;;;7.00;;
20203;SDS011;10261;49.010;12.034;2022-09-09T06:05:45;8.68;;;7.32;;
20203;SDS011;10261;49.010;12.034;2022-09-09T06:06:48;7.22;;;6.57;;
20203;SDS011;10261;49.010;12.034;2022-09-09T06:07:51;7.05;;;5.95;;
20203;SDS011;10261;49.010;12.034;2022-09-09T06:08:56;7.90;;;6.60;;
20203;SDS011;10261;49.010;12.034;2022-09-09T06:10:00;8.60;;;6.53;;
20203;SDS011;10261;49.010;12.034;2022-09-09T06:11:02;6.72;;;6.13;;
20203;SDS011;10261;49.010;12.034;2022-09-09T06:12:07;8.57;;;6.43;;
20203;SDS011;10261;49.010;12.034;2022-09-09T06:13:09;8.25;;;6.18;;
20203;SDS011;10261;49.010;12.034;2022-09-09T06:14:12;6.65;;;6.03;;
20203;SDS011;10261;49.010;12.034;2022-09-09T06:15:14;6.05;;;5.43;;
20203;SDS011;10261;49.010;12.034;2022-09-09T06:16:17;6.70;;;6.10;;
20203;SDS011;10261;49.010;12.034;2022-09-09T06:17:21;5.63;;;5.13;;
20203;SDS011;10261;49.010;12.034;2022-09-09T06:18:24;7.63;;;6.03;;
20203;SDS011;10261;49.010;12.034;2022-09-09T06:19:27;6.07;;;5.50;;
20203;SDS011;10261;49.010;12.034;2022-09-09T06:20:30;7.03;;;6.00;;
20203;SDS011;10261;49.010;12.034;2022-09-09T06:21:33;6.10;;;5.50;;
20203;SDS011;10261;49.010;12.034;2022-09-09T06:22:38;7.10;;;5.68;;
20203;SDS011;10261;49.010;12.034;2022-09-09T06:23:41;6.22;;;5.63;;
20203;SDS011;10261;49.010;12.034;2022-09-09T06:24:46;6.30;;;5.70;;
20203;SDS011;10261;49.010;12.034;2022-09-09T06:25:48;6.13;;;5.50;;
20203;SDS011;10261;49.010;12.034;2022-09-09T06:26:52;5.80;;;5.30;;
20203;SDS011;10261;49.010;12.034;2022-09-09T06:27:55;6.18;;;5.57;;
20203;SDS011;10261;49.010;12.034;2022-09-09T06:28:57;6.18;;;5.57;;